Downloads

-JavaCPC -demo -emu -j-cpc_ani -tools 0-9 A B C D E F G H I J K L M N O P Q R S T U V W X Y Z ZZZ_UNK roms
FILEDATESIZEDLs
KTris by Richard Wilson (PD).zip 2017-04-21 16:14 2 Kb58
Kaiser (G) (19xx).zip 2017-04-21 16:13 91 Kb64
Kane & Nebulus & Renaud - Marche a l'Ombre.zip 2017-04-21 16:13 95 Kb30
Kane (UK) (1986).zip 2017-04-21 16:13 28 Kb48
Kane (UK) (1986) [a1].zip 2017-04-21 16:13 80 Kb59
Kane (UK) (1986) [a2].zip 2017-04-21 16:13 38 Kb47
Kane (UK) (1986) [t1].zip 2017-04-21 16:13 38 Kb56
Karateka (F) (1986).zip 2017-04-21 16:13 50 Kb55
Karateka (F) (1986) [f1].zip 2017-04-21 16:13 50 Kb54
Karateka (F) (1986) [t1].zip 2017-04-21 16:13 50 Kb49
Karateka (F) (1990).zip 2017-04-21 16:13 49 Kb51
Karateka (F) (1990) [t1].zip 2017-04-21 16:13 49 Kb54
Karateka (F).dsk 2017-04-21 16:13 192 Kb61
Karl's Treasure Hunt (UK) (1984).zip 2017-04-21 16:13 11 Kb51
Karl's Treasure Hunt (UK) (1984) [a1].zip 2017-04-21 16:13 84 Kb53
Karl's Treasure Hunt (UK) (1984) [a2].zip 2017-04-21 16:13 11 Kb53
Karnov (E) - Disk 1A.dsk 2017-04-21 16:13 214 Kb51
Karnov (E) - Disk 1B.dsk 2017-04-21 16:13 214 Kb53
Karnov (UK) (1988) (Disk 1 of 2).zip 2017-04-21 16:13 73 Kb52
Karnov (UK) (1988) (Disk 1 of 2) [a1].zip 2017-04-21 16:13 56 Kb45
Karnov (UK) (1988) (Disk 1 of 2) [t1].zip 2017-04-21 16:13 159 Kb55
Karnov (UK) (1988) (Disk 1 of 2) [t2].zip 2017-04-21 16:13 73 Kb49
Karnov (UK) (1988) (Disk 2 of 2).zip 2017-04-21 16:13 62 Kb53
Karnov (UK) (1988) (Disk 2 of 2) [a1].zip 2017-04-21 16:13 105 Kb58
Karnov (UK) (1988) (Disk 2 of 2) [t2].zip 2017-04-21 16:13 62 Kb56
Kat Trap (E).dsk 2017-04-21 16:13 91 Kb57
Kat Trap (UK) (1987).zip 2017-04-21 16:13 34 Kb57
Keep Yourself Alive (F) (1987).zip 2017-04-21 16:13 19 Kb57
Kenny Dalglish Soccer Manager (E).cdt 2017-04-21 16:13 57 Kb70
Kenny Dalglish Soccer Manager (UK) (1989).zip 2017-04-21 16:13 25 Kb56
Kenny Dalglish Soccer Match (UK) (1990).zip 2017-04-21 16:13 29 Kb53
Kentilla (UK) (1985).zip 2017-04-21 16:13 23 Kb59
Kentilla (UK) (1985) [a1].zip 2017-04-21 16:13 30 Kb57
Kentucky Racing (E).cdt 2017-04-21 16:13 45 Kb62
Kentucky Racing (UK) (1990).zip 2017-04-21 16:13 24 Kb51
Kentucky Racing (UK) (1990) [f1].zip 2017-04-21 16:13 24 Kb56
Kessia (F) (19xx).zip 2017-04-21 16:13 72 Kb49
Kettle (E).dsk 2017-04-21 16:13 193 Kb54
Kettle (UK) (1986).zip 2017-04-21 16:13 21 Kb58
Kevin Thacker's CPC Guide (UK) (19xx) (PD) (Disk 1 of 2).zip 2017-04-21 16:13 47 Kb50
Kevin Thacker's CPC Guide (UK) (19xx) (PD) (Disk 2 of 2).zip 2017-04-21 16:13 41 Kb53
Key Factor, The (UK) (1985).zip 2017-04-21 16:13 13 Kb61
Kick Off (UK,F,G,S,I) (1990).zip 2017-04-21 16:13 27 Kb55
Kick Off (UK,F,G,S,I) (1990) [a1].zip 2017-04-21 16:13 131 Kb54
Kick Off (UK,F,G,S,I) (1990) [a2].zip 2017-04-21 16:13 31 Kb49
Kick Off 2 (E) - Disk 1A.dsk 2017-04-21 16:13 178 Kb59
Kick Off 2 (E) - Disk 1B.dsk 2017-04-21 16:13 178 Kb59
Kick Off 2 (F) (1990).zip 2017-04-21 16:13 68 Kb54
Kick Off 2 (F) (1990) [a1].zip 2017-04-21 16:13 68 Kb60
Kikstart II (UK) (1988).zip 2017-04-21 16:13 24 Kb59
Kikstart II (UK) (1988) [a1].zip 2017-04-21 16:13 23 Kb60
Killapede (UK) (1986).zip 2017-04-21 16:13 26 Kb52
Killapede (UK) (1986) [a1].zip 2017-04-21 16:13 26 Kb58
Killapede (UK) (1986) [a2].zip 2017-04-21 16:13 32 Kb56
Killapede (UK) (1986) [a3].zip 2017-04-21 16:13 30 Kb55
Killed Until Dead (UK) (1987) (Disk 1 of 2).zip 2017-04-21 16:13 50 Kb53
Killed Until Dead (UK) (1987) (Disk 2 of 2).zip 2017-04-21 16:13 62 Kb49
Killer Ball (UK) (1991).zip 2017-04-21 16:14 103 Kb51
Killer Ball (UK) (1991) [a1].zip 2017-04-21 16:13 103 Kb56
Killer Ball (UK) (1991) [a2].zip 2017-04-21 16:13 76 Kb57
Killer Ball (UK) (1991) [a3].zip 2017-04-21 16:13 96 Kb49
Killer Cobra (E).cdt 2017-04-21 16:14 49 Kb55
Killer Cobra (UK) (1987).zip 2017-04-21 16:14 27 Kb51
Killer Cobra (UK) (1987) [a1].zip 2017-04-21 16:14 27 Kb55
Killer Cobra (UK) (1987) [a2].zip 2017-04-21 16:14 31 Kb54
Killer Gorilla & Knight Lore & Laserwarp & Molecule Man & Zaxx (F).zip 2017-04-21 16:14 82 Kb31
Killer Gorilla (UK) (1984).zip 2017-04-21 16:14 19 Kb56
Killer Gorilla (UK) (1984) [a1].zip 2017-04-21 16:14 19 Kb56
Killer Gorilla (UK) (1984) [a2].zip 2017-04-21 16:14 15 Kb55
Killer Gorilla (UK) (1984) [a3].zip 2017-04-21 16:14 18 Kb52
Killer Gorilla (UK) (1984) [b1].zip 2017-04-21 16:14 19 Kb49
Killer Gorilla (UK) (1984) [b2].zip 2017-04-21 16:14 19 Kb53
Killer Ring (UK) (1987).zip 2017-04-21 16:14 16 Kb55
Killer Ring (UK) (1987) [a1].zip 2017-04-21 16:14 16 Kb55
Kiloroid (UK) (19xx).zip 2017-04-21 16:14 2 Kb54
Kim (F) (1986).zip 2017-04-21 16:14 9 Kb54
Kinetic (UK) (1987).zip 2017-04-21 16:14 35 Kb54
Kinetic (UK) (1987) [a1].zip 2017-04-21 16:14 36 Kb53
Kinetic (UK) (1987) [a2].zip 2017-04-21 16:14 35 Kb63
Kinetik (E).dsk 2017-04-21 16:14 195 Kb63
Kingdom of Hamil (UK) (1987).zip 2017-04-21 16:14 57 Kb55
Kingdoms (UK) (1985).zip 2017-04-21 16:14 5 Kb57
Kit de Telechargement - Telecharge Amstrad CPC (F).dsk 2017-04-21 16:14 217 Kb61
Kit de Telechargement pour Amstrad CPC (F).dsk 2017-04-21 16:14 191 Kb73
Klax & Meynaumede (F) & Nervous Break Down (F) & Skweek.zip 2017-04-21 16:14 97 Kb32
Klax (E).dsk 2017-04-21 16:14 172 Kb54
Klax (UK) (1990) (CPM).zip 2017-04-21 16:14 44 Kb53
Klax (UK) (1990) (CPM) [a1].zip 2017-04-21 16:14 44 Kb62
Klax (UK) (1990) (CPM Version).zip 2017-04-21 16:14 43 Kb52
Klax (UK) (1990) (CPM Version) [a1].zip 2017-04-21 16:14 43 Kb55
Klax (UK) (1990) (Cart).zip 2017-04-21 16:14 41 Kb57
Klax (UK) (1990).zip 2017-04-21 16:14 42 Kb51
Klax (UK) (1990) [a1].zip 2017-04-21 16:14 42 Kb61
Klax (UK) (1990) [h1].zip 2017-04-21 16:14 52 Kb55
Klax (UK) (1990) [h2].zip 2017-04-21 16:14 54 Kb56
Knaves and thou Prisoners (UK) (19xx).zip 2017-04-21 16:14 8 Kb53
Knight Force (F) (1989) (Disk 1 of 2).zip 2017-04-21 16:14 54 Kb55
Knight Force (F) (1989) (Disk 1 of 2) [t1].zip 2017-04-21 16:14 55 Kb53
Knight Force (F) (1989) (Disk 1 of 2) [t2] & Power Drift.zip 2017-04-21 16:14 108 Kb29
Knight Force (F) (1989) (Disk 1 of 2) [t2].zip 2017-04-21 16:14 75 Kb51
Knight Force (F) (1989) (Disk 2 of 2).zip 2017-04-21 16:14 76 Kb53
Knight Force (F) - Disk 1A.dsk 2017-04-21 16:14 456 Kb57
Knight Force (F) - Disk 1B.dsk 2017-04-21 16:14 627 Kb60
Knight Games (E) - Side A.cdt 2017-04-21 16:14 166 Kb63
Knight Games (E) - Side B.cdt 2017-04-21 16:14 142 Kb52
Knight Games (UK) (1986) (Disk 1 of 2).zip 2017-04-21 16:14 88 Kb57
Knight Games (UK) (1986) (Disk 1 of 2) [a1].zip 2017-04-21 16:14 83 Kb49
Knight Games (UK) (1986) (Disk 1 of 2) [a2].zip 2017-04-21 16:14 83 Kb55
Knight Games (UK) (1986) (Disk 1 of 2) [a3].zip 2017-04-21 16:14 103 Kb49
Knight Games (UK) (1986) (Disk 2 of 2).zip 2017-04-21 16:14 94 Kb51
Knight Games (UK) (1986) (Disk 2 of 2) [a1].zip 2017-04-21 16:14 76 Kb51
Knight Games (UK) (1986) (Disk 2 of 2) [a2].zip 2017-04-21 16:14 79 Kb50
Knight Games (UK) (1986) (Disk 2 of 2) [a3].zip 2017-04-21 16:14 109 Kb54
Knight Games (UK) (1986) [f1][t1].zip 2017-04-21 16:14 179 Kb53
Knight Lore (E).cdt 2017-04-21 16:14 42 Kb53
Knight Lore (UK) (1984).zip 2017-04-21 16:14 25 Kb53
Knight Lore (UK) (1984) [a1].zip 2017-04-21 16:14 25 Kb53
Knight Lore (UK) (1984) [a2].zip 2017-04-21 16:14 25 Kb58
Knight Moves (F) (19xx) (Disk 1 of 2).zip 2017-04-21 16:14 60 Kb55
Knight Moves (F) (19xx) (Disk 2 of 2).zip 2017-04-21 16:14 83 Kb51
Knight Orc (E) - Disk 1A.dsk 2017-04-21 16:14 194 Kb57
Knight Orc (E) - Disk 1B.dsk 2017-04-21 16:14 199 Kb60
Knight Orc (UK) (1987) (Disk 1 of 2).zip 2017-04-21 16:14 119 Kb55
Knight Orc (UK) (1987) (Disk 2 of 2).zip 2017-04-21 16:14 110 Kb54
Knight Rider (E).cdt 2017-04-21 16:14 45 Kb57
Knight Rider (UK) (1986).zip 2017-04-21 16:14 20 Kb49
Knight Rider (UK) (1986) [h1].zip 2017-04-21 16:14 32 Kb55
Knight Rider (UK) (1986) [h2].zip 2017-04-21 16:14 21 Kb53
Knight Tyme (E).cdt 2017-04-21 16:14 57 Kb59
Knight Tyme (UK) (1986).zip 2017-04-21 16:14 31 Kb60
Knight Tyme (UK) (1986) [a1].zip 2017-04-21 16:14 31 Kb57
Knight Tyme (UK) (1986) [t1].zip 2017-04-21 16:14 31 Kb49
Knightmare (E).dsk 2017-04-21 16:14 213 Kb60
Knightmare (UK) (1987).zip 2017-04-21 16:14 29 Kb56
Knightmare (UK) (1987) [a1].zip 2017-04-21 16:14 30 Kb49
Knightmare (UK) (1987) [a2].zip 2017-04-21 16:14 30 Kb58
Knightmare (UK) (1987) [t1].zip 2017-04-21 16:14 33 Kb56
Know (G).dsk 2017-04-21 16:14 192 Kb64
Kobayashi Naru (UK) (19xx).zip 2017-04-21 16:14 31 Kb54
Kobayashi Naru (UK) (1987).zip 2017-04-21 16:14 31 Kb55
Kobayashi Naru (UK) (1987) [a1].zip 2017-04-21 16:14 31 Kb57
Kobayashi Naru (UK) (1987) [a2].zip 2017-04-21 16:14 48 Kb58
Kokotoni Wilf (UK) (19xx).zip 2017-04-21 16:14 137 Kb60
Kokotoni Wilf (UK) (19xx) [a1].zip 2017-04-21 16:14 35 Kb55
Kokotoni Wilf (UK) (19xx) [f1][t1].zip 2017-04-21 16:14 37 Kb53
Konami's Golf (UK) (1986).zip 2017-04-21 16:14 24 Kb49
Konami's Golf (UK) (1986) [a1].zip 2017-04-21 16:14 24 Kb53
Konami's Golf (UK) (1986) [a2].zip 2017-04-21 16:14 26 Kb52
Konami Coin-op Hits (UK) (19xx) (Disk 1 of 2).zip 2017-04-21 16:14 50 Kb52
Konami Coin-op Hits (UK) (19xx) (Disk 1 of 2) [a1].zip 2017-04-21 16:14 50 Kb50
Konami Coin-op Hits (UK) (19xx) (Disk 2 of 2).zip 2017-04-21 16:14 65 Kb51
Konami Coin-op Hits (UK) (19xx) (Disk 2 of 2) [a1].zip 2017-04-21 16:14 65 Kb53
Konami Coin-op Hits (UK) (19xx) (Disk 2 of 2) [a2].zip 2017-04-21 16:14 65 Kb52
Kong Strikes Back (UK) (1985).zip 2017-04-21 16:14 21 Kb59
Kong Strikes Back (UK) (1985) [a1].zip 2017-04-21 16:14 21 Kb56
Kong Strikes Back (UK) (1985) [a2].zip 2017-04-21 16:14 23 Kb52
Koronis Rift (E).dsk 2017-04-21 16:14 186 Kb60
Koronis Rift (UK) (1987).zip 2017-04-21 16:14 57 Kb54
Krakout (E).cdt 2017-04-21 16:14 64 Kb61
Krakout (E).dsk 2017-04-21 16:14 171 Kb60
Krakout (UK) (1987).zip 2017-04-21 16:14 31 Kb58
Krakout (UK) (1987) [h1].zip 2017-04-21 16:14 34 Kb50
Kristal (F).dsk 2017-04-21 16:14 191 Kb58
Kristal (UK) (1985).zip 2017-04-21 16:14 16 Kb56
Kristax (UK) (1989).zip 2017-04-21 16:14 9 Kb54
Krypton Factor (UK) (1987) (Disk 1 of 2).zip 2017-04-21 16:14 52 Kb49
Krypton Factor (UK) (1987) (Disk 1 of 2) [a1].zip 2017-04-21 16:14 47 Kb58
Krypton Factor (UK) (1987) (Disk 2 of 2).zip 2017-04-21 16:14 5 Kb53
Krypton Factor (UK) (1987) (Disk 2 of 2) [a1].zip 2017-04-21 16:14 21 Kb53
Kung-Fu (UK) (1986).zip 2017-04-21 16:14 19 Kb53
Kung-Fu Master (E).dsk 2017-04-21 16:14 191 Kb50
Kung-Fu Master (UK) (1986).zip 2017-04-21 16:14 28 Kb54
Kung-Fu Master (UK) (1986) [h1].zip 2017-04-21 16:14 22 Kb56
Kwah (UK) (1987).zip 2017-04-21 16:14 36 Kb48
Kwik Snax (E).cdt 2017-04-21 16:14 65 Kb67
Kwik Snax (UK) (1990).zip 2017-04-21 16:14 22 Kb51
Kwik Snax (UK) (1990) [f1].zip 2017-04-21 16:14 33 Kb58
Kwik Snax (UK) (1990) [h1].zip 2017-04-21 16:14 41 Kb58
Kwik Snax (UK) (1990) [t1].zip 2017-04-21 16:14 33 Kb53
kobayashi Naru (E).cdt 2017-04-21 16:14 74 Kb58
180 Files
-JavaCPC -demo -emu -j-cpc_ani -tools 0-9 A B C D E F G H I J K L M N O P Q R S T U V W X Y Z ZZZ_UNK roms